sensor_id;sensor_type;location;lat;lon;timestamp;P1;durP1;ratioP1;P2;durP2;ratioP2
2474;SDS011;1248;48.694;10.160;2023-07-08T00:02:09;18.37;;;9.07;;
2474;SDS011;1248;48.694;10.160;2023-07-08T00:04:37;15.93;;;9.13;;
2474;SDS011;1248;48.694;10.160;2023-07-08T00:07:04;12.83;;;8.77;;
2474;SDS011;1248;48.694;10.160;2023-07-08T00:09:32;17.33;;;9.50;;
2474;SDS011;1248;48.694;10.160;2023-07-08T00:11:59;12.73;;;8.67;;
2474;SDS011;1248;48.694;10.160;2023-07-08T00:14:26;13.37;;;8.80;;
2474;SDS011;1248;48.694;10.160;2023-07-08T00:16:54;14.57;;;8.13;;
2474;SDS011;1248;48.694;10.160;2023-07-08T00:19:21;15.30;;;9.20;;
2474;SDS011;1248;48.694;10.160;2023-07-08T00:21:49;15.23;;;9.43;;
2474;SDS011;1248;48.694;10.160;2023-07-08T00:24:18;15.17;;;8.97;;
2474;SDS011;1248;48.694;10.160;2023-07-08T00:26:45;12.23;;;8.63;;
2474;SDS011;1248;48.694;10.160;2023-07-08T00:29:12;16.17;;;8.33;;
2474;SDS011;1248;48.694;10.160;2023-07-08T00:31:42;14.53;;;8.30;;
2474;SDS011;1248;48.694;10.160;2023-07-08T00:34:10;15.10;;;9.17;;
2474;SDS011;1248;48.694;10.160;2023-07-08T00:36:37;14.33;;;8.90;;
2474;SDS011;1248;48.694;10.160;2023-07-08T00:39:08;26.63;;;9.77;;
2474;SDS011;1248;48.694;10.160;2023-07-08T00:41:37;16.63;;;9.40;;
2474;SDS011;1248;48.694;10.160;2023-07-08T00:44:07;13.13;;;8.73;;
2474;SDS011;1248;48.694;10.160;2023-07-08T00:46:37;23.90;;;9.43;;
2474;SDS011;1248;48.694;10.160;2023-07-08T00:49:17;18.80;;;9.20;;
2474;SDS011;1248;48.694;10.160;2023-07-08T00:51:51;14.00;;;8.80;;
2474;SDS011;1248;48.694;10.160;2023-07-08T00:54:19;13.10;;;8.13;;
2474;SDS011;1248;48.694;10.160;2023-07-08T00:56:47;16.50;;;8.53;;
2474;SDS011;1248;48.694;10.160;2023-07-08T00:59:18;15.93;;;8.50;;
2474;SDS011;1248;48.694;10.160;2023-07-08T01:01:48;21.93;;;9.73;;
2474;SDS011;1248;48.694;10.160;2023-07-08T01:04:19;21.73;;;9.90;;
2474;SDS011;1248;48.694;10.160;2023-07-08T01:06:49;19.40;;;10.97;;
2474;SDS011;1248;48.694;10.160;2023-07-08T01:09:23;13.63;;;8.90;;
2474;SDS011;1248;48.694;10.160;2023-07-08T01:11:52;21.23;;;10.20;;
2474;SDS011;1248;48.694;10.160;2023-07-08T01:14:19;14.67;;;9.60;;
2474;SDS011;1248;48.694;10.160;2023-07-08T01:16:47;14.63;;;8.50;;
2474;SDS011;1248;48.694;10.160;2023-07-08T01:19:16;14.87;;;8.97;;
2474;SDS011;1248;48.694;10.160;2023-07-08T01:21:47;13.27;;;8.80;;
2474;SDS011;1248;48.694;10.160;2023-07-08T01:24:25;18.63;;;9.20;;
2474;SDS011;1248;48.694;10.160;2023-07-08T01:26:52;12.33;;;8.63;;
2474;SDS011;1248;48.694;10.160;2023-07-08T01:29:20;13.30;;;8.50;;
2474;SDS011;1248;48.694;10.160;2023-07-08T01:31:47;12.57;;;8.40;;
2474;SDS011;1248;48.694;10.160;2023-07-08T01:34:15;12.70;;;7.83;;
2474;SDS011;1248;48.694;10.160;2023-07-08T01:36:44;13.87;;;9.00;;
2474;SDS011;1248;48.694;10.160;2023-07-08T01:39:15;12.77;;;8.53;;
2474;SDS011;1248;48.694;10.160;2023-07-08T01:41:44;15.47;;;8.90;;
2474;SDS011;1248;48.694;10.160;2023-07-08T01:44:21;13.80;;;8.50;;
2474;SDS011;1248;48.694;10.160;2023-07-08T01:46:53;12.37;;;8.50;;
2474;SDS011;1248;48.694;10.160;2023-07-08T01:49:22;12.50;;;8.20;;
2474;SDS011;1248;48.694;10.160;2023-07-08T01:51:49;17.03;;;9.33;;
2474;SDS011;1248;48.694;10.160;2023-07-08T01:54:18;17.40;;;8.00;;
2474;SDS011;1248;48.694;10.160;2023-07-08T01:56:45;19.60;;;9.57;;
2474;SDS011;1248;48.694;10.160;2023-07-08T01:59:12;12.43;;;8.20;;
2474;SDS011;1248;48.694;10.160;2023-07-08T02:01:39;13.20;;;8.57;;
2474;SDS011;1248;48.694;10.160;2023-07-08T02:04:06;13.47;;;8.70;;
2474;SDS011;1248;48.694;10.160;2023-07-08T02:06:33;19.33;;;9.83;;
2474;SDS011;1248;48.694;10.160;2023-07-08T02:09:00;12.40;;;8.90;;
2474;SDS011;1248;48.694;10.160;2023-07-08T02:11:29;21.53;;;8.93;;
2474;SDS011;1248;48.694;10.160;2023-07-08T02:13:56;12.63;;;8.90;;
2474;SDS011;1248;48.694;10.160;2023-07-08T02:16:25;18.43;;;8.83;;
2474;SDS011;1248;48.694;10.160;2023-07-08T02:18:53;15.07;;;9.60;;
2474;SDS011;1248;48.694;10.160;2023-07-08T02:21:20;14.17;;;9.33;;
2474;SDS011;1248;48.694;10.160;2023-07-08T02:23:48;18.50;;;9.93;;
2474;SDS011;1248;48.694;10.160;2023-07-08T02:26:16;13.27;;;8.97;;
2474;SDS011;1248;48.694;10.160;2023-07-08T02:28:44;17.47;;;8.90;;
2474;SDS011;1248;48.694;10.160;2023-07-08T02:31:11;12.07;;;8.63;;
2474;SDS011;1248;48.694;10.160;2023-07-08T02:33:38;12.63;;;8.40;;
2474;SDS011;1248;48.694;10.160;2023-07-08T02:36:05;13.47;;;7.67;;
2474;SDS011;1248;48.694;10.160;2023-07-08T02:38:32;14.20;;;8.50;;
2474;SDS011;1248;48.694;10.160;2023-07-08T02:40:59;16.83;;;8.90;;
2474;SDS011;1248;48.694;10.160;2023-07-08T02:43:27;14.70;;;7.70;;
2474;SDS011;1248;48.694;10.160;2023-07-08T02:45:55;13.10;;;8.07;;
2474;SDS011;1248;48.694;10.160;2023-07-08T02:48:22;14.80;;;9.00;;
2474;SDS011;1248;48.694;10.160;2023-07-08T02:50:49;14.37;;;8.00;;
2474;SDS011;1248;48.694;10.160;2023-07-08T02:53:16;12.67;;;8.20;;
2474;SDS011;1248;48.694;10.160;2023-07-08T02:55:43;14.67;;;9.30;;
2474;SDS011;1248;48.694;10.160;2023-07-08T02:58:10;18.20;;;9.00;;
2474;SDS011;1248;48.694;10.160;2023-07-08T03:00:37;16.47;;;8.63;;
2474;SDS011;1248;48.694;10.160;2023-07-08T03:03:06;14.07;;;9.37;;
2474;SDS011;1248;48.694;10.160;2023-07-08T03:05:33;16.40;;;9.00;;
2474;SDS011;1248;48.694;10.160;2023-07-08T03:08:00;15.60;;;10.00;;
2474;SDS011;1248;48.694;10.160;2023-07-08T03:10:27;13.60;;;8.97;;
2474;SDS011;1248;48.694;10.160;2023-07-08T03:12:54;12.33;;;7.70;;
2474;SDS011;1248;48.694;10.160;2023-07-08T03:15:21;14.57;;;9.27;;
2474;SDS011;1248;48.694;10.160;2023-07-08T03:17:48;17.30;;;8.70;;
2474;SDS011;1248;48.694;10.160;2023-07-08T03:20:17;20.50;;;10.27;;
2474;SDS011;1248;48.694;10.160;2023-07-08T03:22:44;20.43;;;10.20;;
2474;SDS011;1248;48.694;10.160;2023-07-08T03:25:11;17.63;;;9.37;;
2474;SDS011;1248;48.694;10.160;2023-07-08T03:27:38;25.50;;;9.63;;
2474;SDS011;1248;48.694;10.160;2023-07-08T03:30:05;17.67;;;9.70;;
2474;SDS011;1248;48.694;10.160;2023-07-08T03:32:34;13.97;;;9.13;;
2474;SDS011;1248;48.694;10.160;2023-07-08T03:35:02;12.67;;;8.43;;
2474;SDS011;1248;48.694;10.160;2023-07-08T03:37:30;14.13;;;9.20;;
2474;SDS011;1248;48.694;10.160;2023-07-08T03:39:57;13.93;;;8.33;;
2474;SDS011;1248;48.694;10.160;2023-07-08T03:42:24;14.50;;;8.23;;
2474;SDS011;1248;48.694;10.160;2023-07-08T03:44:51;14.67;;;8.97;;
2474;SDS011;1248;48.694;10.160;2023-07-08T03:47:18;12.53;;;7.77;;
2474;SDS011;1248;48.694;10.160;2023-07-08T03:49:45;14.10;;;8.63;;
2474;SDS011;1248;48.694;10.160;2023-07-08T03:52:14;17.53;;;8.83;;
2474;SDS011;1248;48.694;10.160;2023-07-08T03:54:43;13.03;;;8.13;;
2474;SDS011;1248;48.694;10.160;2023-07-08T03:57:10;15.17;;;8.50;;
2474;SDS011;1248;48.694;10.160;2023-07-08T03:59:37;10.87;;;8.50;;
2474;SDS011;1248;48.694;10.160;2023-07-08T04:02:05;11.53;;;9.43;;
2474;SDS011;1248;48.694;10.160;2023-07-08T04:04:32;14.23;;;9.40;;
2474;SDS011;1248;48.694;10.160;2023-07-08T04:07:00;19.60;;;8.30;;
2474;SDS011;1248;48.694;10.160;2023-07-08T04:09:27;21.47;;;9.93;;
2474;SDS011;1248;48.694;10.160;2023-07-08T04:11:56;17.33;;;9.23;;
2474;SDS011;1248;48.694;10.160;2023-07-08T04:14:23;10.30;;;7.90;;
2474;SDS011;1248;48.694;10.160;2023-07-08T04:16:50;17.50;;;9.23;;
2474;SDS011;1248;48.694;10.160;2023-07-08T04:19:18;16.00;;;8.93;;
2474;SDS011;1248;48.694;10.160;2023-07-08T04:21:45;15.77;;;9.03;;
2474;SDS011;1248;48.694;10.160;2023-07-08T04:24:13;15.40;;;8.77;;
2474;SDS011;1248;48.694;10.160;2023-07-08T04:26:41;14.03;;;9.33;;
2474;SDS011;1248;48.694;10.160;2023-07-08T04:29:11;15.17;;;9.40;;
2474;SDS011;1248;48.694;10.160;2023-07-08T04:31:38;19.97;;;9.60;;
2474;SDS011;1248;48.694;10.160;2023-07-08T04:34:05;11.70;;;7.60;;
2474;SDS011;1248;48.694;10.160;2023-07-08T04:36:32;16.93;;;9.20;;
2474;SDS011;1248;48.694;10.160;2023-07-08T04:39:00;13.40;;;8.03;;
2474;SDS011;1248;48.694;10.160;2023-07-08T04:41:27;15.40;;;8.37;;
2474;SDS011;1248;48.694;10.160;2023-07-08T04:43:54;12.87;;;8.47;;
2474;SDS011;1248;48.694;10.160;2023-07-08T04:46:26;21.87;;;9.53;;
2474;SDS011;1248;48.694;10.160;2023-07-08T04:49:00;16.97;;;8.50;;
2474;SDS011;1248;48.694;10.160;2023-07-08T04:51:28;14.90;;;8.10;;
2474;SDS011;1248;48.694;10.160;2023-07-08T04:53:55;20.07;;;9.10;;
2474;SDS011;1248;48.694;10.160;2023-07-08T04:56:25;16.80;;;8.10;;
2474;SDS011;1248;48.694;10.160;2023-07-08T04:58:52;14.60;;;8.57;;
2474;SDS011;1248;48.694;10.160;2023-07-08T05:01:19;19.50;;;9.50;;
2474;SDS011;1248;48.694;10.160;2023-07-08T05:03:47;13.23;;;8.07;;
2474;SDS011;1248;48.694;10.160;2023-07-08T05:06:14;18.00;;;8.87;;
2474;SDS011;1248;48.694;10.160;2023-07-08T05:08:41;16.60;;;9.20;;
2474;SDS011;1248;48.694;10.160;2023-07-08T05:11:08;19.90;;;10.40;;
2474;SDS011;1248;48.694;10.160;2023-07-08T05:13:35;22.10;;;8.80;;
2474;SDS011;1248;48.694;10.160;2023-07-08T05:16:02;17.27;;;9.70;;
2474;SDS011;1248;48.694;10.160;2023-07-08T05:18:30;14.07;;;8.20;;
2474;SDS011;1248;48.694;10.160;2023-07-08T05:20:58;14.10;;;8.93;;
2474;SDS011;1248;48.694;10.160;2023-07-08T05:23:25;18.77;;;8.30;;
2474;SDS011;1248;48.694;10.160;2023-07-08T05:25:52;17.47;;;8.90;;
2474;SDS011;1248;48.694;10.160;2023-07-08T05:28:19;14.53;;;8.30;;
2474;SDS011;1248;48.694;10.160;2023-07-08T05:30:51;19.40;;;8.93;;
2474;SDS011;1248;48.694;10.160;2023-07-08T05:33:19;17.13;;;9.10;;
2474;SDS011;1248;48.694;10.160;2023-07-08T05:35:46;13.17;;;8.80;;
2474;SDS011;1248;48.694;10.160;2023-07-08T05:38:14;14.80;;;8.57;;
2474;SDS011;1248;48.694;10.160;2023-07-08T05:40:42;14.47;;;7.63;;
2474;SDS011;1248;48.694;10.160;2023-07-08T05:43:09;14.20;;;8.97;;
2474;SDS011;1248;48.694;10.160;2023-07-08T05:45:36;12.53;;;8.00;;
2474;SDS011;1248;48.694;10.160;2023-07-08T05:48:03;16.27;;;8.80;;
2474;SDS011;1248;48.694;10.160;2023-07-08T05:50:31;12.60;;;8.73;;
2474;SDS011;1248;48.694;10.160;2023-07-08T05:52:58;16.57;;;9.10;;
2474;SDS011;1248;48.694;10.160;2023-07-08T05:55:26;15.23;;;8.40;;
2474;SDS011;1248;48.694;10.160;2023-07-08T05:57:53;21.20;;;8.60;;
2474;SDS011;1248;48.694;10.160;2023-07-08T06:00:20;17.10;;;9.03;;
2474;SDS011;1248;48.694;10.160;2023-07-08T06:02:47;22.37;;;9.20;;
2474;SDS011;1248;48.694;10.160;2023-07-08T06:05:14;24.63;;;9.90;;
2474;SDS011;1248;48.694;10.160;2023-07-08T06:07:41;24.23;;;9.00;;
2474;SDS011;1248;48.694;10.160;2023-07-08T06:10:08;20.43;;;8.33;;
2474;SDS011;1248;48.694;10.160;2023-07-08T06:12:37;19.13;;;8.47;;
2474;SDS011;1248;48.694;10.160;2023-07-08T06:15:04;15.67;;;7.53;;
2474;SDS011;1248;48.694;10.160;2023-07-08T06:17:33;19.13;;;8.60;;
2474;SDS011;1248;48.694;10.160;2023-07-08T06:20:00;18.40;;;7.60;;
2474;SDS011;1248;48.694;10.160;2023-07-08T06:22:27;26.20;;;8.63;;
2474;SDS011;1248;48.694;10.160;2023-07-08T06:24:54;16.17;;;8.87;;
2474;SDS011;1248;48.694;10.160;2023-07-08T06:27:21;21.17;;;9.60;;
2474;SDS011;1248;48.694;10.160;2023-07-08T06:29:50;22.03;;;8.13;;
2474;SDS011;1248;48.694;10.160;2023-07-08T06:32:17;23.00;;;8.77;;
2474;SDS011;1248;48.694;10.160;2023-07-08T06:34:44;28.07;;;8.10;;
2474;SDS011;1248;48.694;10.160;2023-07-08T06:37:11;12.90;;;8.00;;
2474;SDS011;1248;48.694;10.160;2023-07-08T06:39:38;23.13;;;9.03;;
2474;SDS011;1248;48.694;10.160;2023-07-08T06:42:06;16.67;;;8.40;;
2474;SDS011;1248;48.694;10.160;2023-07-08T06:44:33;15.87;;;7.87;;
2474;SDS011;1248;48.694;10.160;2023-07-08T06:47:01;11.53;;;7.40;;
2474;SDS011;1248;48.694;10.160;2023-07-08T06:49:28;11.43;;;6.80;;
2474;SDS011;1248;48.694;10.160;2023-07-08T06:51:55;14.90;;;7.93;;
2474;SDS011;1248;48.694;10.160;2023-07-08T06:54:25;11.90;;;7.70;;
2474;SDS011;1248;48.694;10.160;2023-07-08T06:56:53;10.73;;;6.63;;
2474;SDS011;1248;48.694;10.160;2023-07-08T06:59:20;11.90;;;7.47;;
2474;SDS011;1248;48.694;10.160;2023-07-08T07:01:47;11.97;;;8.37;;
2474;SDS011;1248;48.694;10.160;2023-07-08T07:04:16;13.80;;;7.33;;
2474;SDS011;1248;48.694;10.160;2023-07-08T07:06:43;10.83;;;7.40;;
2474;SDS011;1248;48.694;10.160;2023-07-08T07:09:10;9.53;;;5.80;;
2474;SDS011;1248;48.694;10.160;2023-07-08T07:11:37;10.30;;;7.23;;
2474;SDS011;1248;48.694;10.160;2023-07-08T07:14:04;11.40;;;6.37;;
2474;SDS011;1248;48.694;10.160;2023-07-08T07:16:31;9.30;;;7.10;;
2474;SDS011;1248;48.694;10.160;2023-07-08T07:18:58;12.63;;;6.73;;
2474;SDS011;1248;48.694;10.160;2023-07-08T07:21:27;9.77;;;5.80;;
2474;SDS011;1248;48.694;10.160;2023-07-08T07:23:54;9.73;;;7.27;;
2474;SDS011;1248;48.694;10.160;2023-07-08T07:26:21;9.93;;;7.13;;
2474;SDS011;1248;48.694;10.160;2023-07-08T07:28:48;8.53;;;6.23;;
2474;SDS011;1248;48.694;10.160;2023-07-08T07:31:15;13.13;;;7.50;;
2474;SDS011;1248;48.694;10.160;2023-07-08T07:33:42;11.87;;;6.70;;
2474;SDS011;1248;48.694;10.160;2023-07-08T07:36:09;12.27;;;7.20;;
2474;SDS011;1248;48.694;10.160;2023-07-08T07:38:38;13.10;;;7.30;;
2474;SDS011;1248;48.694;10.160;2023-07-08T07:41:05;9.63;;;6.13;;
2474;SDS011;1248;48.694;10.160;2023-07-08T07:43:35;8.77;;;6.10;;
2474;SDS011;1248;48.694;10.160;2023-07-08T07:46:02;10.83;;;7.23;;
2474;SDS011;1248;48.694;10.160;2023-07-08T07:48:31;6.90;;;6.10;;
2474;SDS011;1248;48.694;10.160;2023-07-08T07:50:58;11.40;;;6.57;;
2474;SDS011;1248;48.694;10.160;2023-07-08T07:53:25;8.83;;;6.60;;
2474;SDS011;1248;48.694;10.160;2023-07-08T07:55:57;13.83;;;7.63;;
2474;SDS011;1248;48.694;10.160;2023-07-08T07:58:24;14.33;;;7.03;;
2474;SDS011;1248;48.694;10.160;2023-07-08T08:00:51;13.27;;;7.47;;
2474;SDS011;1248;48.694;10.160;2023-07-08T08:03:18;8.67;;;6.80;;
2474;SDS011;1248;48.694;10.160;2023-07-08T08:05:45;8.10;;;5.87;;
2474;SDS011;1248;48.694;10.160;2023-07-08T08:08:13;11.20;;;7.83;;
2474;SDS011;1248;48.694;10.160;2023-07-08T08:10:40;10.40;;;7.33;;
2474;SDS011;1248;48.694;10.160;2023-07-08T08:13:08;11.40;;;7.43;;
2474;SDS011;1248;48.694;10.160;2023-07-08T08:15:35;13.07;;;7.33;;
2474;SDS011;1248;48.694;10.160;2023-07-08T08:18:03;11.67;;;7.83;;
2474;SDS011;1248;48.694;10.160;2023-07-08T08:20:30;10.43;;;8.17;;
2474;SDS011;1248;48.694;10.160;2023-07-08T08:22:57;13.67;;;7.60;;
2474;SDS011;1248;48.694;10.160;2023-07-08T08:25:24;9.30;;;7.00;;
2474;SDS011;1248;48.694;10.160;2023-07-08T08:27:51;12.50;;;7.50;;
2474;SDS011;1248;48.694;10.160;2023-07-08T08:30:20;14.17;;;7.87;;
2474;SDS011;1248;48.694;10.160;2023-07-08T08:32:47;13.60;;;7.93;;
2474;SDS011;1248;48.694;10.160;2023-07-08T08:35:14;10.83;;;7.10;;
2474;SDS011;1248;48.694;10.160;2023-07-08T08:37:41;10.80;;;7.30;;
2474;SDS011;1248;48.694;10.160;2023-07-08T08:40:10;8.87;;;7.80;;
2474;SDS011;1248;48.694;10.160;2023-07-08T08:42:42;13.90;;;7.47;;
2474;SDS011;1248;48.694;10.160;2023-07-08T08:45:13;12.87;;;7.47;;
2474;SDS011;1248;48.694;10.160;2023-07-08T08:47:44;9.00;;;7.70;;
2474;SDS011;1248;48.694;10.160;2023-07-08T08:50:20;9.43;;;6.20;;
2474;SDS011;1248;48.694;10.160;2023-07-08T08:52:52;9.37;;;7.30;;
2474;SDS011;1248;48.694;10.160;2023-07-08T08:55:21;8.30;;;6.93;;
2474;SDS011;1248;48.694;10.160;2023-07-08T08:57:54;12.10;;;7.50;;
2474;SDS011;1248;48.694;10.160;2023-07-08T09:00:28;10.17;;;7.73;;
2474;SDS011;1248;48.694;10.160;2023-07-08T09:03:09;10.83;;;7.60;;
2474;SDS011;1248;48.694;10.160;2023-07-08T09:05:38;9.20;;;7.10;;
2474;SDS011;1248;48.694;10.160;2023-07-08T09:08:10;9.50;;;7.30;;
2474;SDS011;1248;48.694;10.160;2023-07-08T09:10:42;10.83;;;8.07;;
2474;SDS011;1248;48.694;10.160;2023-07-08T09:13:14;14.33;;;8.30;;
2474;SDS011;1248;48.694;10.160;2023-07-08T09:15:43;11.30;;;7.70;;
2474;SDS011;1248;48.694;10.160;2023-07-08T09:18:15;10.97;;;8.20;;
2474;SDS011;1248;48.694;10.160;2023-07-08T09:20:44;14.47;;;8.60;;
2474;SDS011;1248;48.694;10.160;2023-07-08T09:23:15;9.77;;;7.40;;
2474;SDS011;1248;48.694;10.160;2023-07-08T09:25:47;10.13;;;7.20;;
2474;SDS011;1248;48.694;10.160;2023-07-08T09:28:17;9.77;;;8.00;;
2474;SDS011;1248;48.694;10.160;2023-07-08T09:30:45;12.33;;;6.83;;
2474;SDS011;1248;48.694;10.160;2023-07-08T09:33:14;10.27;;;7.60;;
2474;SDS011;1248;48.694;10.160;2023-07-08T09:35:43;11.60;;;7.83;;
2474;SDS011;1248;48.694;10.160;2023-07-08T09:38:13;14.83;;;8.53;;
2474;SDS011;1248;48.694;10.160;2023-07-08T09:40:44;8.00;;;7.00;;
2474;SDS011;1248;48.694;10.160;2023-07-08T09:43:16;11.10;;;8.27;;
2474;SDS011;1248;48.694;10.160;2023-07-08T09:45:47;9.10;;;7.50;;
2474;SDS011;1248;48.694;10.160;2023-07-08T09:48:17;12.83;;;7.90;;
2474;SDS011;1248;48.694;10.160;2023-07-08T09:50:47;14.03;;;7.40;;
2474;SDS011;1248;48.694;10.160;2023-07-08T09:53:14;12.13;;;7.70;;
2474;SDS011;1248;48.694;10.160;2023-07-08T09:55:41;8.27;;;6.83;;
2474;SDS011;1248;48.694;10.160;2023-07-08T09:58:10;17.03;;;8.40;;
2474;SDS011;1248;48.694;10.160;2023-07-08T10:00:40;10.40;;;7.50;;
2474;SDS011;1248;48.694;10.160;2023-07-08T10:03:11;12.93;;;8.33;;
2474;SDS011;1248;48.694;10.160;2023-07-08T10:05:49;8.50;;;6.60;;
2474;SDS011;1248;48.694;10.160;2023-07-08T10:08:17;9.83;;;6.90;;
2474;SDS011;1248;48.694;10.160;2023-07-08T10:10:46;9.90;;;7.23;;
2474;SDS011;1248;48.694;10.160;2023-07-08T10:13:17;14.87;;;6.77;;
2474;SDS011;1248;48.694;10.160;2023-07-08T10:15:46;8.47;;;7.03;;
2474;SDS011;1248;48.694;10.160;2023-07-08T10:18:16;10.20;;;7.40;;
2474;SDS011;1248;48.694;10.160;2023-07-08T10:20:47;12.27;;;7.53;;
2474;SDS011;1248;48.694;10.160;2023-07-08T10:23:23;15.50;;;7.63;;
2474;SDS011;1248;48.694;10.160;2023-07-08T10:25:58;10.60;;;6.97;;
2474;SDS011;1248;48.694;10.160;2023-07-08T10:28:38;14.40;;;7.70;;
2474;SDS011;1248;48.694;10.160;2023-07-08T10:31:20;8.60;;;7.10;;
2474;SDS011;1248;48.694;10.160;2023-07-08T10:33:55;9.73;;;7.00;;
2474;SDS011;1248;48.694;10.160;2023-07-08T10:36:31;9.03;;;6.80;;
2474;SDS011;1248;48.694;10.160;2023-07-08T10:39:17;10.67;;;6.87;;
2474;SDS011;1248;48.694;10.160;2023-07-08T10:41:54;8.13;;;6.57;;
2474;SDS011;1248;48.694;10.160;2023-07-08T10:44:28;8.50;;;6.37;;
2474;SDS011;1248;48.694;10.160;2023-07-08T10:47:00;8.73;;;6.77;;
2474;SDS011;1248;48.694;10.160;2023-07-08T10:49:41;8.50;;;5.90;;
2474;SDS011;1248;48.694;10.160;2023-07-08T10:52:24;8.20;;;6.00;;
2474;SDS011;1248;48.694;10.160;2023-07-08T10:55:05;8.97;;;5.60;;
2474;SDS011;1248;48.694;10.160;2023-07-08T10:57:56;9.40;;;5.00;;
2474;SDS011;1248;48.694;10.160;2023-07-08T11:00:45;5.70;;;3.63;;
2474;SDS011;1248;48.694;10.160;2023-07-08T11:06:10;9.47;;;5.17;;
2474;SDS011;1248;48.694;10.160;2023-07-08T11:08:42;7.53;;;4.10;;
2474;SDS011;1248;48.694;10.160;2023-07-08T11:11:13;5.47;;;3.40;;
2474;SDS011;1248;48.694;10.160;2023-07-08T11:13:48;4.00;;;3.50;;
2474;SDS011;1248;48.694;10.160;2023-07-08T11:16:21;9.73;;;3.90;;
2474;SDS011;1248;48.694;10.160;2023-07-08T11:18:52;8.23;;;4.27;;
2474;SDS011;1248;48.694;10.160;2023-07-08T11:21:22;4.57;;;3.40;;
2474;SDS011;1248;48.694;10.160;2023-07-08T11:23:54;4.20;;;3.63;;
2474;SDS011;1248;48.694;10.160;2023-07-08T11:26:25;4.43;;;3.43;;
2474;SDS011;1248;48.694;10.160;2023-07-08T11:28:56;6.97;;;3.60;;
2474;SDS011;1248;48.694;10.160;2023-07-08T11:31:24;5.40;;;3.97;;
2474;SDS011;1248;48.694;10.160;2023-07-08T11:33:52;4.67;;;3.60;;
2474;SDS011;1248;48.694;10.160;2023-07-08T11:36:20;3.50;;;3.20;;
2474;SDS011;1248;48.694;10.160;2023-07-08T11:38:48;30.10;;;7.83;;
2474;SDS011;1248;48.694;10.160;2023-07-08T11:41:18;11.67;;;4.87;;
2474;SDS011;1248;48.694;10.160;2023-07-08T11:43:47;8.13;;;5.10;;
2474;SDS011;1248;48.694;10.160;2023-07-08T11:46:18;23.30;;;8.90;;
2474;SDS011;1248;48.694;10.160;2023-07-08T11:48:47;7.80;;;3.97;;
2474;SDS011;1248;48.694;10.160;2023-07-08T11:51:17;5.07;;;2.90;;
2474;SDS011;1248;48.694;10.160;2023-07-08T11:53:47;8.50;;;4.73;;
2474;SDS011;1248;48.694;10.160;2023-07-08T11:56:25;11.60;;;3.83;;
2474;SDS011;1248;48.694;10.160;2023-07-08T11:58:57;8.47;;;5.00;;
2474;SDS011;1248;48.694;10.160;2023-07-08T12:01:32;9.27;;;5.33;;
2474;SDS011;1248;48.694;10.160;2023-07-08T12:04:15;13.47;;;5.63;;
2474;SDS011;1248;48.694;10.160;2023-07-08T12:06:46;6.13;;;4.23;;
2474;SDS011;1248;48.694;10.160;2023-07-08T12:09:15;6.80;;;4.63;;
2474;SDS011;1248;48.694;10.160;2023-07-08T12:11:54;9.70;;;4.63;;
2474;SDS011;1248;48.694;10.160;2023-07-08T12:14:30;6.53;;;4.33;;
2474;SDS011;1248;48.694;10.160;2023-07-08T12:16:58;6.93;;;4.70;;
2474;SDS011;1248;48.694;10.160;2023-07-08T12:19:25;8.77;;;5.77;;
2474;SDS011;1248;48.694;10.160;2023-07-08T12:21:57;7.40;;;4.50;;
2474;SDS011;1248;48.694;10.160;2023-07-08T12:24:24;7.87;;;4.80;;
2474;SDS011;1248;48.694;10.160;2023-07-08T12:26:54;5.47;;;4.10;;
2474;SDS011;1248;48.694;10.160;2023-07-08T12:29:21;5.17;;;4.27;;
2474;SDS011;1248;48.694;10.160;2023-07-08T12:31:48;10.30;;;5.43;;
2474;SDS011;1248;48.694;10.160;2023-07-08T12:34:16;7.40;;;4.70;;
2474;SDS011;1248;48.694;10.160;2023-07-08T12:36:43;14.47;;;4.73;;
2474;SDS011;1248;48.694;10.160;2023-07-08T12:39:13;19.50;;;7.70;;
2474;SDS011;1248;48.694;10.160;2023-07-08T12:41:42;6.93;;;4.13;;
2474;SDS011;1248;48.694;10.160;2023-07-08T12:44:18;9.20;;;4.90;;
2474;SDS011;1248;48.694;10.160;2023-07-08T12:46:47;6.17;;;4.73;;
2474;SDS011;1248;48.694;10.160;2023-07-08T12:49:15;5.50;;;4.13;;
2474;SDS011;1248;48.694;10.160;2023-07-08T12:51:44;7.97;;;5.27;;
2474;SDS011;1248;48.694;10.160;2023-07-08T12:54:12;6.83;;;4.30;;
2474;SDS011;1248;48.694;10.160;2023-07-08T12:56:42;8.67;;;4.80;;
2474;SDS011;1248;48.694;10.160;2023-07-08T12:59:11;6.70;;;4.43;;
2474;SDS011;1248;48.694;10.160;2023-07-08T13:01:42;6.60;;;4.27;;
2474;SDS011;1248;48.694;10.160;2023-07-08T13:04:12;6.23;;;4.03;;
2474;SDS011;1248;48.694;10.160;2023-07-08T13:06:40;5.83;;;3.83;;
2474;SDS011;1248;48.694;10.160;2023-07-08T13:09:22;6.30;;;4.17;;
2474;SDS011;1248;48.694;10.160;2023-07-08T13:11:53;7.10;;;3.87;;
2474;SDS011;1248;48.694;10.160;2023-07-08T13:14:21;7.40;;;3.97;;
2474;SDS011;1248;48.694;10.160;2023-07-08T13:16:50;5.73;;;3.80;;
2474;SDS011;1248;48.694;10.160;2023-07-08T13:19:17;6.77;;;4.00;;
2474;SDS011;1248;48.694;10.160;2023-07-08T13:21:45;5.53;;;3.80;;
2474;SDS011;1248;48.694;10.160;2023-07-08T13:24:13;4.93;;;3.70;;
2474;SDS011;1248;48.694;10.160;2023-07-08T13:26:40;9.03;;;4.40;;
2474;SDS011;1248;48.694;10.160;2023-07-08T13:29:12;7.33;;;3.80;;
2474;SDS011;1248;48.694;10.160;2023-07-08T13:31:42;7.27;;;4.20;;
2474;SDS011;1248;48.694;10.160;2023-07-08T13:34:16;8.10;;;3.60;;
2474;SDS011;1248;48.694;10.160;2023-07-08T13:36:46;5.00;;;3.40;;
2474;SDS011;1248;48.694;10.160;2023-07-08T13:39:19;3.80;;;3.37;;
2474;SDS011;1248;48.694;10.160;2023-07-08T13:41:48;5.93;;;3.10;;
2474;SDS011;1248;48.694;10.160;2023-07-08T13:44:16;5.10;;;3.53;;
2474;SDS011;1248;48.694;10.160;2023-07-08T13:46:45;6.80;;;2.93;;
2474;SDS011;1248;48.694;10.160;2023-07-08T13:49:19;4.17;;;3.30;;
2474;SDS011;1248;48.694;10.160;2023-07-08T13:51:48;5.80;;;3.30;;
2474;SDS011;1248;48.694;10.160;2023-07-08T13:54:18;5.07;;;3.37;;
2474;SDS011;1248;48.694;10.160;2023-07-08T13:56:47;5.90;;;3.13;;
2474;SDS011;1248;48.694;10.160;2023-07-08T13:59:17;6.50;;;3.37;;
2474;SDS011;1248;48.694;10.160;2023-07-08T14:01:46;5.03;;;3.00;;
2474;SDS011;1248;48.694;10.160;2023-07-08T14:04:13;6.67;;;3.40;;
2474;SDS011;1248;48.694;10.160;2023-07-08T14:06:43;8.40;;;3.80;;
2474;SDS011;1248;48.694;10.160;2023-07-08T14:09:11;5.33;;;3.63;;
2474;SDS011;1248;48.694;10.160;2023-07-08T14:11:39;7.77;;;4.97;;
2474;SDS011;1248;48.694;10.160;2023-07-08T14:14:07;4.90;;;3.57;;
2474;SDS011;1248;48.694;10.160;2023-07-08T14:16:35;5.53;;;3.90;;
2474;SDS011;1248;48.694;10.160;2023-07-08T14:19:05;4.30;;;2.87;;
2474;SDS011;1248;48.694;10.160;2023-07-08T14:21:33;7.00;;;3.00;;
2474;SDS011;1248;48.694;10.160;2023-07-08T14:24:04;6.53;;;3.80;;
2474;SDS011;1248;48.694;10.160;2023-07-08T14:26:36;4.37;;;3.67;;
2474;SDS011;1248;48.694;10.160;2023-07-08T14:29:03;4.67;;;3.17;;
2474;SDS011;1248;48.694;10.160;2023-07-08T14:31:30;4.17;;;3.03;;
2474;SDS011;1248;48.694;10.160;2023-07-08T14:33:59;7.53;;;3.10;;
2474;SDS011;1248;48.694;10.160;2023-07-08T14:36:29;6.93;;;3.70;;
2474;SDS011;1248;48.694;10.160;2023-07-08T14:38:56;7.30;;;4.20;;
2474;SDS011;1248;48.694;10.160;2023-07-08T14:41:25;5.57;;;3.57;;
2474;SDS011;1248;48.694;10.160;2023-07-08T14:43:54;5.80;;;3.23;;
2474;SDS011;1248;48.694;10.160;2023-07-08T14:46:21;5.33;;;2.97;;
2474;SDS011;1248;48.694;10.160;2023-07-08T14:48:48;6.17;;;3.80;;
2474;SDS011;1248;48.694;10.160;2023-07-08T14:51:15;5.30;;;3.67;;
2474;SDS011;1248;48.694;10.160;2023-07-08T14:53:42;10.47;;;3.47;;
2474;SDS011;1248;48.694;10.160;2023-07-08T14:56:13;9.13;;;3.67;;
2474;SDS011;1248;48.694;10.160;2023-07-08T14:58:44;5.77;;;3.23;;
2474;SDS011;1248;48.694;10.160;2023-07-08T15:01:13;8.67;;;3.43;;
2474;SDS011;1248;48.694;10.160;2023-07-08T15:03:42;5.33;;;3.17;;
2474;SDS011;1248;48.694;10.160;2023-07-08T15:06:09;4.50;;;3.20;;
2474;SDS011;1248;48.694;10.160;2023-07-08T15:08:37;5.70;;;3.10;;